sensor_id;sensor_type;location;lat;lon;timestamp;pressure;altitude;pressure_sealevel;temperature;humidity
19890;BME280;10107;51.198;6.824;2024-01-10T00:00:54;-21163.91;;;-5.98;86.86
19890;BME280;10107;51.198;6.824;2024-01-10T00:04:57;-21163.91;;;-5.98;85.83
19890;BME280;10107;51.198;6.824;2024-01-10T00:08:59;-21163.50;;;-5.99;86.08
19890;BME280;10107;51.198;6.824;2024-01-10T00:13:01;-21163.66;;;-5.99;85.99
19890;BME280;10107;51.198;6.824;2024-01-10T00:17:03;-21163.38;;;-6.00;86.09
19890;BME280;10107;51.198;6.824;2024-01-10T00:21:06;-21164.06;;;-5.97;84.99
19890;BME280;10107;51.198;6.824;2024-01-10T00:25:07;-21165.41;;;-5.92;84.10
19890;BME280;10107;51.198;6.824;2024-01-10T00:29:09;-21166.34;;;-5.88;84.61
19890;BME280;10107;51.198;6.824;2024-01-10T00:33:11;-21166.50;;;-5.88;83.80
19890;BME280;10107;51.198;6.824;2024-01-10T00:37:14;-21166.50;;;-5.88;84.96
19890;BME280;10107;51.198;6.824;2024-01-10T00:41:16;-21165.94;;;-5.90;84.25
19890;BME280;10107;51.198;6.824;2024-01-10T00:45:18;-21167.31;;;-5.85;83.57
19890;BME280;10107;51.198;6.824;2024-01-10T00:49:20;-21167.44;;;-5.84;84.07
19890;BME280;10107;51.198;6.824;2024-01-10T00:53:23;-21166.75;;;-5.87;84.54
19890;BME280;10107;51.198;6.824;2024-01-10T00:57:24;-21165.94;;;-5.90;84.36
19890;BME280;10107;51.198;6.824;2024-01-10T01:01:26;-21165.41;;;-5.92;83.95
19890;BME280;10107;51.198;6.824;2024-01-10T01:05:28;-21165.13;;;-5.93;83.80
19890;BME280;10107;51.198;6.824;2024-01-10T01:09:31;-21164.47;;;-5.95;83.98
19890;BME280;10107;51.198;6.824;2024-01-10T01:13:33;-21162.69;;;-6.02;85.08
19890;BME280;10107;51.198;6.824;2024-01-10T01:17:34;-21162.16;;;-6.04;84.67
19890;BME280;10107;51.198;6.824;2024-01-10T01:21:36;-21161.34;;;-6.07;85.65
19890;BME280;10107;51.198;6.824;2024-01-10T01:25:39;-21160.66;;;-6.10;85.53
19890;BME280;10107;51.198;6.824;2024-01-10T01:29:41;-21160.81;;;-6.09;85.19
19890;BME280;10107;51.198;6.824;2024-01-10T01:33:43;-21160.41;;;-6.11;85.10
19890;BME280;10107;51.198;6.824;2024-01-10T01:37:44;-21161.22;;;-6.08;84.82
19890;BME280;10107;51.198;6.824;2024-01-10T01:41:47;-21160.66;;;-6.10;85.00
19890;BME280;10107;51.198;6.824;2024-01-10T01:45:51;-21159.72;;;-6.13;85.70
19890;BME280;10107;51.198;6.824;2024-01-10T01:49:53;-21160.53;;;-6.10;84.89
19890;BME280;10107;51.198;6.824;2024-01-10T01:53:55;-21161.34;;;-6.07;84.37
19890;BME280;10107;51.198;6.824;2024-01-10T01:57:58;-21160.00;;;-6.12;84.66
19890;BME280;10107;51.198;6.824;2024-01-10T02:02:02;-21158.09;;;-6.20;85.45
19890;BME280;10107;51.198;6.824;2024-01-10T02:06:06;-21158.38;;;-6.19;84.85
19890;BME280;10107;51.198;6.824;2024-01-10T02:10:08;-21158.63;;;-6.18;84.84
19890;BME280;10107;51.198;6.824;2024-01-10T02:14:12;-21159.31;;;-6.15;84.69
19890;BME280;10107;51.198;6.824;2024-01-10T02:18:14;-21159.31;;;-6.15;85.15
19890;BME280;10107;51.198;6.824;2024-01-10T02:22:15;-21156.47;;;-6.26;86.32
19890;BME280;10107;51.198;6.824;2024-01-10T02:26:19;-21154.97;;;-6.31;86.42
19890;BME280;10107;51.198;6.824;2024-01-10T02:30:20;-21153.63;;;-6.37;86.76
19890;BME280;10107;51.198;6.824;2024-01-10T02:34:22;-21152.94;;;-6.39;85.98
19890;BME280;10107;51.198;6.824;2024-01-10T02:38:24;-21153.06;;;-6.39;86.81
19890;BME280;10107;51.198;6.824;2024-01-10T02:42:28;-21153.63;;;-6.37;86.38
19890;BME280;10107;51.198;6.824;2024-01-10T02:46:30;-21153.88;;;-6.35;86.93
19890;BME280;10107;51.198;6.824;2024-01-10T02:50:32;-21153.47;;;-6.37;86.31
19890;BME280;10107;51.198;6.824;2024-01-10T02:54:34;-21151.16;;;-6.46;87.01
19890;BME280;10107;51.198;6.824;2024-01-10T02:58:37;-21149.00;;;-6.54;87.78
19890;BME280;10107;51.198;6.824;2024-01-10T03:02:39;-21147.91;;;-6.58;88.63
19890;BME280;10107;51.198;6.824;2024-01-10T03:06:41;-21145.63;;;-6.67;89.85
19890;BME280;10107;51.198;6.824;2024-01-10T03:10:43;-21145.47;;;-6.67;89.76
19890;BME280;10107;51.198;6.824;2024-01-10T03:14:46;-21144.53;;;-6.71;89.83
19890;BME280;10107;51.198;6.824;2024-01-10T03:18:48;-21143.44;;;-6.75;90.58
19890;BME280;10107;51.198;6.824;2024-01-10T03:22:49;-21143.84;;;-6.73;89.50
19890;BME280;10107;51.198;6.824;2024-01-10T03:26:51;-21144.94;;;-6.69;87.69
19890;BME280;10107;51.198;6.824;2024-01-10T03:30:54;-21146.97;;;-6.62;85.67
19890;BME280;10107;51.198;6.824;2024-01-10T03:34:55;-21149.28;;;-6.53;84.61
19890;BME280;10107;51.198;6.824;2024-01-10T03:38:57;-21149.69;;;-6.51;84.38
19890;BME280;10107;51.198;6.824;2024-01-10T03:42:59;-21149.13;;;-6.53;83.36
19890;BME280;10107;51.198;6.824;2024-01-10T03:47:02;-21150.22;;;-6.49;82.11
19890;BME280;10107;51.198;6.824;2024-01-10T03:51:04;-21151.31;;;-6.45;82.39
19890;BME280;10107;51.198;6.824;2024-01-10T03:55:06;-21150.50;;;-6.48;82.36
19890;BME280;10107;51.198;6.824;2024-01-10T03:59:08;-21151.59;;;-6.44;81.75
19890;BME280;10107;51.198;6.824;2024-01-10T04:03:11;-21152.41;;;-6.41;81.04
19890;BME280;10107;51.198;6.824;2024-01-10T04:07:12;-21152.41;;;-6.41;80.83
19890;BME280;10107;51.198;6.824;2024-01-10T04:11:14;-21151.03;;;-6.46;82.21
19890;BME280;10107;51.198;6.824;2024-01-10T04:15:16;-21150.75;;;-6.47;81.08
19890;BME280;10107;51.198;6.824;2024-01-10T04:19:20;-21151.03;;;-6.46;81.41
19890;BME280;10107;51.198;6.824;2024-01-10T04:23:22;-21151.03;;;-6.46;81.44
19890;BME280;10107;51.198;6.824;2024-01-10T04:27:24;-21150.75;;;-6.47;81.15
19890;BME280;10107;51.198;6.824;2024-01-10T04:31:26;-21150.63;;;-6.48;82.01
19890;BME280;10107;51.198;6.824;2024-01-10T04:35:29;-21149.81;;;-6.51;82.63
19890;BME280;10107;51.198;6.824;2024-01-10T04:39:31;-21148.47;;;-6.56;83.41
19890;BME280;10107;51.198;6.824;2024-01-10T04:43:33;-21146.97;;;-6.62;85.07
19890;BME280;10107;51.198;6.824;2024-01-10T04:47:34;-21146.69;;;-6.63;85.23
19890;BME280;10107;51.198;6.824;2024-01-10T04:51:37;-21145.88;;;-6.66;86.38
19890;BME280;10107;51.198;6.824;2024-01-10T04:55:39;-21145.47;;;-6.67;87.53
19890;BME280;10107;51.198;6.824;2024-01-10T04:59:41;-21144.53;;;-6.71;87.78
19890;BME280;10107;51.198;6.824;2024-01-10T05:03:43;-21143.97;;;-6.73;87.26
19890;BME280;10107;51.198;6.824;2024-01-10T05:07:46;-21143.72;;;-6.74;87.29
19890;BME280;10107;51.198;6.824;2024-01-10T05:11:48;-21143.97;;;-6.73;88.08
19890;BME280;10107;51.198;6.824;2024-01-10T05:15:51;-21144.78;;;-6.70;88.40
19890;BME280;10107;51.198;6.824;2024-01-10T05:19:53;-21143.03;;;-6.77;88.99
19890;BME280;10107;51.198;6.824;2024-01-10T05:23:56;-21141.28;;;-6.83;90.78
19890;BME280;10107;51.198;6.824;2024-01-10T05:27:58;-21139.91;;;-6.88;91.94
19890;BME280;10107;51.198;6.824;2024-01-10T05:32:00;-21138.56;;;-6.93;92.92
19890;BME280;10107;51.198;6.824;2024-01-10T05:36:02;-21137.34;;;-6.98;93.37
19890;BME280;10107;51.198;6.824;2024-01-10T05:40:06;-21135.84;;;-7.04;95.96
19890;BME280;10107;51.198;6.824;2024-01-10T05:44:08;-21135.16;;;-7.06;97.47
19890;BME280;10107;51.198;6.824;2024-01-10T05:48:10;-21133.81;;;-7.11;97.75
19890;BME280;10107;51.198;6.824;2024-01-10T05:52:12;-21133.25;;;-7.13;97.93
19890;BME280;10107;51.198;6.824;2024-01-10T05:56:15;-21132.44;;;-7.17;98.06
19890;BME280;10107;51.198;6.824;2024-01-10T06:00:17;-21131.91;;;-7.19;98.85
19890;BME280;10107;51.198;6.824;2024-01-10T06:04:21;-21132.31;;;-7.17;98.46
19890;BME280;10107;51.198;6.824;2024-01-10T06:08:23;-21133.00;;;-7.14;98.79
19890;BME280;10107;51.198;6.824;2024-01-10T06:12:27;-21134.22;;;-7.10;97.11
19890;BME280;10107;51.198;6.824;2024-01-10T06:16:29;-21134.88;;;-7.07;97.56
19890;BME280;10107;51.198;6.824;2024-01-10T06:20:31;-21134.75;;;-7.08;97.74
19890;BME280;10107;51.198;6.824;2024-01-10T06:24:33;-21134.06;;;-7.10;97.69
19890;BME280;10107;51.198;6.824;2024-01-10T06:28:36;-21131.34;;;-7.21;98.54
19890;BME280;10107;51.198;6.824;2024-01-10T06:32:38;-21130.13;;;-7.25;100.00
19890;BME280;10107;51.198;6.824;2024-01-10T06:36:39;-21130.00;;;-7.26;100.00
19890;BME280;10107;51.198;6.824;2024-01-10T06:40:41;-21129.59;;;-7.27;100.00
19890;BME280;10107;51.198;6.824;2024-01-10T06:44:46;-21127.16;;;-7.37;100.00
19890;BME280;10107;51.198;6.824;2024-01-10T06:48:48;-21124.97;;;-7.45;100.00
19890;BME280;10107;51.198;6.824;2024-01-10T06:52:50;-21123.34;;;-7.51;100.00
19890;BME280;10107;51.198;6.824;2024-01-10T06:56:51;-21125.13;;;-7.44;100.00
19890;BME280;10107;51.198;6.824;2024-01-10T07:00:54;-21129.06;;;-7.29;100.00
19890;BME280;10107;51.198;6.824;2024-01-10T07:04:56;-21133.00;;;-7.14;100.00
19890;BME280;10107;51.198;6.824;2024-01-10T07:08:58;-21134.63;;;-7.08;100.00
19890;BME280;10107;51.198;6.824;2024-01-10T07:13:00;-21136.38;;;-7.02;98.39
19890;BME280;10107;51.198;6.824;2024-01-10T07:17:07;-21137.75;;;-6.97;98.89
19890;BME280;10107;51.198;6.824;2024-01-10T07:21:09;-21138.81;;;-6.92;97.28
19890;BME280;10107;51.198;6.824;2024-01-10T07:25:11;-21140.84;;;-6.85;95.89
19890;BME280;10107;51.198;6.824;2024-01-10T07:29:14;-21142.63;;;-6.78;95.29
19890;BME280;10107;51.198;6.824;2024-01-10T07:33:17;-21143.84;;;-6.73;95.95
19890;BME280;10107;51.198;6.824;2024-01-10T07:37:20;-21144.38;;;-6.71;94.90
19890;BME280;10107;51.198;6.824;2024-01-10T07:41:23;-21145.06;;;-6.69;94.74
19890;BME280;10107;51.198;6.824;2024-01-10T07:45:25;-21146.97;;;-6.62;93.76
19890;BME280;10107;51.198;6.824;2024-01-10T07:49:28;-21147.66;;;-6.59;94.16
19890;BME280;10107;51.198;6.824;2024-01-10T07:53:30;-21148.47;;;-6.56;93.88
19890;BME280;10107;51.198;6.824;2024-01-10T07:57:33;-21148.72;;;-6.55;94.34
19890;BME280;10107;51.198;6.824;2024-01-10T08:01:35;-21149.00;;;-6.54;94.34
19890;BME280;10107;51.198;6.824;2024-01-10T08:05:38;-21149.94;;;-6.50;95.34
19890;BME280;10107;51.198;6.824;2024-01-10T08:09:40;-21150.38;;;-6.49;97.50
19890;BME280;10107;51.198;6.824;2024-01-10T08:13:42;-21151.31;;;-6.45;97.26
19890;BME280;10107;51.198;6.824;2024-01-10T08:17:44;-21152.13;;;-6.42;97.67
19890;BME280;10107;51.198;6.824;2024-01-10T08:21:47;-21153.88;;;-6.35;98.30
19890;BME280;10107;51.198;6.824;2024-01-10T08:25:50;-21156.19;;;-6.27;97.68
19890;BME280;10107;51.198;6.824;2024-01-10T08:29:52;-21158.91;;;-6.17;97.34
19890;BME280;10107;51.198;6.824;2024-01-10T08:33:54;-21161.06;;;-6.08;98.85
19890;BME280;10107;51.198;6.824;2024-01-10T08:37:58;-21162.97;;;-6.01;98.72
19890;BME280;10107;51.198;6.824;2024-01-10T08:42:00;-21164.88;;;-5.94;99.77
19890;BME280;10107;51.198;6.824;2024-01-10T08:46:01;-21167.44;;;-5.84;100.00
19890;BME280;10107;51.198;6.824;2024-01-10T08:50:04;-21169.75;;;-5.75;99.57
19890;BME280;10107;51.198;6.824;2024-01-10T08:54:10;-21172.44;;;-5.65;99.47
19890;BME280;10107;51.198;6.824;2024-01-10T08:58:13;-21174.50;;;-5.58;98.83
19890;BME280;10107;51.198;6.824;2024-01-10T09:02:15;-21177.06;;;-5.48;98.12
19890;BME280;10107;51.198;6.824;2024-01-10T09:06:16;-21256.03;;;-2.48;89.41
19890;BME280;10107;51.198;6.824;2024-01-10T09:10:19;-21459.69;;;5.30;52.68
19890;BME280;10107;51.198;6.824;2024-01-10T09:14:22;-21585.97;;;10.17;36.93
19890;BME280;10107;51.198;6.824;2024-01-10T09:18:24;-21665.84;;;13.26;29.78
19890;BME280;10107;51.198;6.824;2024-01-10T09:22:25;-21713.38;;;15.12;25.91
19890;BME280;10107;51.198;6.824;2024-01-10T09:26:28;-21730.84;;;15.80;23.87
19890;BME280;10107;51.198;6.824;2024-01-10T09:30:30;-21676.25;;;13.67;24.01
19890;BME280;10107;51.198;6.824;2024-01-10T09:34:32;-21489.84;;;6.46;31.01
19890;BME280;10107;51.198;6.824;2024-01-10T09:38:35;-21372.69;;;1.96;39.15
19890;BME280;10107;51.198;6.824;2024-01-10T09:42:38;-21307.53;;;-0.52;46.52
19890;BME280;10107;51.198;6.824;2024-01-10T09:46:41;-21271.81;;;-1.88;53.07
19890;BME280;10107;51.198;6.824;2024-01-10T09:50:46;-21255.34;;;-2.51;57.43
19890;BME280;10107;51.198;6.824;2024-01-10T09:54:53;-21245.38;;;-2.89;61.03
19890;BME280;10107;51.198;6.824;2024-01-10T09:58:58;-21241.84;;;-3.02;62.33
19890;BME280;10107;51.198;6.824;2024-01-10T10:03:04;-21241.31;;;-3.04;62.84
19890;BME280;10107;51.198;6.824;2024-01-10T10:07:06;-21242.13;;;-3.01;63.47
19890;BME280;10107;51.198;6.824;2024-01-10T10:11:11;-21242.00;;;-3.02;63.17
19890;BME280;10107;51.198;6.824;2024-01-10T10:15:16;-21243.63;;;-2.95;63.22
19890;BME280;10107;51.198;6.824;2024-01-10T10:19:25;-21246.72;;;-2.84;63.43
19890;BME280;10107;51.198;6.824;2024-01-10T10:23:26;-21248.47;;;-2.77;63.28
19890;BME280;10107;51.198;6.824;2024-01-10T10:27:28;-21250.09;;;-2.71;63.16
19890;BME280;10107;51.198;6.824;2024-01-10T10:31:31;-21251.19;;;-2.67;62.94
19890;BME280;10107;51.198;6.824;2024-01-10T10:35:33;-21252.78;;;-2.61;62.18
19890;BME280;10107;51.198;6.824;2024-01-10T10:39:35;-21254.28;;;-2.55;63.06
19890;BME280;10107;51.198;6.824;2024-01-10T10:43:38;-21256.16;;;-2.48;62.19
19890;BME280;10107;51.198;6.824;2024-01-10T10:47:43;-21259.28;;;-2.36;62.13
19890;BME280;10107;51.198;6.824;2024-01-10T10:51:46;-21263.19;;;-2.21;62.97
19890;BME280;10107;51.198;6.824;2024-01-10T10:55:50;-21266.16;;;-2.10;62.03
19890;BME280;10107;51.198;6.824;2024-01-10T10:59:53;-21273.84;;;-1.81;61.66
19890;BME280;10107;51.198;6.824;2024-01-10T11:03:58;-21292.56;;;-1.09;59.08
19890;BME280;10107;51.198;6.824;2024-01-10T11:08:00;-21341.16;;;0.76;53.26
19890;BME280;10107;51.198;6.824;2024-01-10T11:12:16;-21395.91;;;2.85;46.54
19890;BME280;10107;51.198;6.824;2024-01-10T11:16:42;-21439.78;;;4.53;42.03
19890;BME280;10107;51.198;6.824;2024-01-10T11:21:11;-21466.91;;;5.58;39.44
19890;BME280;10107;51.198;6.824;2024-01-10T11:25:17;-21479.06;;;6.04;38.27
19890;BME280;10107;51.198;6.824;2024-01-10T11:29:19;-21482.78;;;6.19;37.57
19890;BME280;10107;51.198;6.824;2024-01-10T11:33:22;-21475.59;;;5.91;37.39
19890;BME280;10107;51.198;6.824;2024-01-10T11:37:38;-21467.31;;;5.59;39.11
19890;BME280;10107;51.198;6.824;2024-01-10T11:41:40;-21453.81;;;5.07;39.54
19890;BME280;10107;51.198;6.824;2024-01-10T11:45:52;-21415.72;;;3.61;42.24
19890;BME280;10107;51.198;6.824;2024-01-10T11:49:55;-21376.06;;;2.09;45.36
19890;BME280;10107;51.198;6.824;2024-01-10T11:53:58;-21350.16;;;1.10;48.65
19890;BME280;10107;51.198;6.824;2024-01-10T11:58:08;-21331.06;;;0.37;52.32
19890;BME280;10107;51.198;6.824;2024-01-10T12:02:10;-21320.03;;;-0.05;54.28
19890;BME280;10107;51.198;6.824;2024-01-10T12:06:14;-21313.31;;;-0.30;55.18
19890;BME280;10107;51.198;6.824;2024-01-10T12:10:18;-21307.00;;;-0.54;55.18
19890;BME280;10107;51.198;6.824;2024-01-10T12:14:20;-21299.97;;;-0.81;56.52
19890;BME280;10107;51.198;6.824;2024-01-10T12:18:22;-21296.22;;;-0.95;57.70
19890;BME280;10107;51.198;6.824;2024-01-10T12:22:23;-21294.47;;;-1.02;58.82
19890;BME280;10107;51.198;6.824;2024-01-10T12:26:27;-21293.38;;;-1.06;59.06
19890;BME280;10107;51.198;6.824;2024-01-10T12:30:28;-21292.16;;;-1.11;59.58
19890;BME280;10107;51.198;6.824;2024-01-10T12:34:31;-21290.03;;;-1.19;60.00
19890;BME280;10107;51.198;6.824;2024-01-10T12:38:33;-21288.94;;;-1.23;61.41
19890;BME280;10107;51.198;6.824;2024-01-10T12:42:36;-21286.38;;;-1.33;63.10
19890;BME280;10107;51.198;6.824;2024-01-10T12:46:49;-21283.81;;;-1.43;64.45
19890;BME280;10107;51.198;6.824;2024-01-10T12:50:52;-21281.78;;;-1.50;63.84
19890;BME280;10107;51.198;6.824;2024-01-10T12:54:54;-21281.66;;;-1.51;65.04
19890;BME280;10107;51.198;6.824;2024-01-10T12:58:58;-21282.59;;;-1.47;64.97
19890;BME280;10107;51.198;6.824;2024-01-10T13:03:00;-21283.69;;;-1.43;63.75
19890;BME280;10107;51.198;6.824;2024-01-10T13:07:03;-21285.31;;;-1.37;63.34
19890;BME280;10107;51.198;6.824;2024-01-10T13:11:05;-21285.31;;;-1.37;64.52
19890;BME280;10107;51.198;6.824;2024-01-10T13:15:10;-21284.63;;;-1.40;64.59
19890;BME280;10107;51.198;6.824;2024-01-10T13:19:12;-21284.34;;;-1.41;64.60
19890;BME280;10107;51.198;6.824;2024-01-10T13:23:15;-21285.44;;;-1.36;64.23
19890;BME280;10107;51.198;6.824;2024-01-10T13:27:17;-21287.19;;;-1.30;63.59
19890;BME280;10107;51.198;6.824;2024-01-10T13:31:20;-21289.47;;;-1.21;64.42
19890;BME280;10107;51.198;6.824;2024-01-10T13:35:21;-21292.44;;;-1.10;64.43
19890;BME280;10107;51.198;6.824;2024-01-10T13:39:24;-21294.31;;;-1.03;65.79
19890;BME280;10107;51.198;6.824;2024-01-10T13:43:26;-21295.13;;;-1.00;65.20
19890;BME280;10107;51.198;6.824;2024-01-10T13:47:30;-21296.34;;;-0.95;65.63
19890;BME280;10107;51.198;6.824;2024-01-10T13:51:33;-21297.81;;;-0.89;65.54
19890;BME280;10107;51.198;6.824;2024-01-10T13:55:35;-21298.63;;;-0.86;63.67
19890;BME280;10107;51.198;6.824;2024-01-10T13:59:37;-21299.72;;;-0.82;62.34
19890;BME280;10107;51.198;6.824;2024-01-10T14:03:39;-21300.66;;;-0.78;61.21
19890;BME280;10107;51.198;6.824;2024-01-10T14:07:41;-21302.00;;;-0.73;61.88
19890;BME280;10107;51.198;6.824;2024-01-10T14:11:44;-21302.94;;;-0.70;62.01
19890;BME280;10107;51.198;6.824;2024-01-10T14:15:49;-21303.47;;;-0.68;62.60
19890;BME280;10107;51.198;6.824;2024-01-10T14:19:52;-21302.00;;;-0.73;63.39
19890;BME280;10107;51.198;6.824;2024-01-10T14:23:54;-21302.41;;;-0.72;63.71
19890;BME280;10107;51.198;6.824;2024-01-10T14:27:55;-21302.53;;;-0.71;63.46
19890;BME280;10107;51.198;6.824;2024-01-10T14:31:58;-21303.75;;;-0.67;64.07
19890;BME280;10107;51.198;6.824;2024-01-10T14:36:02;-21303.22;;;-0.69;64.99
19890;BME280;10107;51.198;6.824;2024-01-10T14:40:05;-21302.28;;;-0.72;64.99
19890;BME280;10107;51.198;6.824;2024-01-10T14:44:07;-21300.25;;;-0.80;65.63
19890;BME280;10107;51.198;6.824;2024-01-10T14:48:09;-21297.81;;;-0.89;66.16
19890;BME280;10107;51.198;6.824;2024-01-10T14:52:12;-21294.31;;;-1.03;66.69
19890;BME280;10107;51.198;6.824;2024-01-10T14:56:14;-21291.38;;;-1.14;67.39
19890;BME280;10107;51.198;6.824;2024-01-10T15:00:17;-21287.47;;;-1.29;68.48
19890;BME280;10107;51.198;6.824;2024-01-10T15:04:19;-21283.28;;;-1.45;70.20
19890;BME280;10107;51.198;6.824;2024-01-10T15:08:22;-21279.78;;;-1.58;72.04
19890;BME280;10107;51.198;6.824;2024-01-10T15:12:23;-21276.13;;;-1.72;73.80
19890;BME280;10107;51.198;6.824;2024-01-10T15:16:26;-21273.31;;;-1.83;75.00
19890;BME280;10107;51.198;6.824;2024-01-10T15:20:27;-21271.16;;;-1.91;75.94
19890;BME280;10107;51.198;6.824;2024-01-10T15:24:30;-21269.53;;;-1.97;77.49
19890;BME280;10107;51.198;6.824;2024-01-10T15:28:32;-21266.16;;;-2.10;78.86
19890;BME280;10107;51.198;6.824;2024-01-10T15:32:33;-21265.22;;;-2.13;79.53
19890;BME280;10107;51.198;6.824;2024-01-10T15:36:39;-21263.31;;;-2.21;79.76
19890;BME280;10107;51.198;6.824;2024-01-10T15:40:43;-21261.56;;;-2.27;81.00
19890;BME280;10107;51.198;6.824;2024-01-10T15:44:45;-21260.63;;;-2.31;81.56
19890;BME280;10107;51.198;6.824;2024-01-10T15:48:47;-21259.53;;;-2.35;81.68
19890;BME280;10107;51.198;6.824;2024-01-10T15:52:48;-21256.97;;;-2.45;82.65
19890;BME280;10107;51.198;6.824;2024-01-10T15:56:52;-21253.75;;;-2.57;83.41
19890;BME280;10107;51.198;6.824;2024-01-10T16:00:54;-21252.66;;;-2.61;83.38
19890;BME280;10107;51.198;6.824;2024-01-10T16:04:56;-21249.41;;;-2.73;84.16
19890;BME280;10107;51.198;6.824;2024-01-10T16:08:58;-21247.13;;;-2.82;85.07
19890;BME280;10107;51.198;6.824;2024-01-10T16:13:01;-21247.41;;;-2.81;84.58
19890;BME280;10107;51.198;6.824;2024-01-10T16:17:03;-21247.25;;;-2.82;84.39
19890;BME280;10107;51.198;6.824;2024-01-10T16:21:05;-21244.56;;;-2.92;84.59
19890;BME280;10107;51.198;6.824;2024-01-10T16:25:07;-21239.44;;;-3.11;86.34
19890;BME280;10107;51.198;6.824;2024-01-10T16:29:10;-21234.56;;;-3.30;88.43
19890;BME280;10107;51.198;6.824;2024-01-10T16:33:11;-21232.81;;;-3.36;90.01
19890;BME280;10107;51.198;6.824;2024-01-10T16:37:13;-21228.63;;;-3.52;92.48
19890;BME280;10107;51.198;6.824;2024-01-10T16:41:15;-21224.28;;;-3.69;94.58
19890;BME280;10107;51.198;6.824;2024-01-10T16:45:18;-21222.81;;;-3.74;96.10
19890;BME280;10107;51.198;6.824;2024-01-10T16:49:20;-21221.06;;;-3.81;96.51
19890;BME280;10107;51.198;6.824;2024-01-10T16:53:21;-21218.88;;;-3.89;98.25
19890;BME280;10107;51.198;6.824;2024-01-10T16:57:23;-21216.72;;;-3.98;98.87
19890;BME280;10107;51.198;6.824;2024-01-10T17:01:26;-21214.97;;;-4.04;99.56
19890;BME280;10107;51.198;6.824;2024-01-10T17:05:28;-21214.00;;;-4.08;100.00
19890;BME280;10107;51.198;6.824;2024-01-10T17:09:30;-21212.81;;;-4.12;100.00
19890;BME280;10107;51.198;6.824;2024-01-10T17:13:32;-21210.91;;;-4.20;100.00
19890;BME280;10107;51.198;6.824;2024-01-10T17:17:35;-21211.31;;;-4.18;100.00
19890;BME280;10107;51.198;6.824;2024-01-10T17:21:37;-21209.81;;;-4.24;100.00
19890;BME280;10107;51.198;6.824;2024-01-10T17:25:39;-21207.66;;;-4.32;100.00
19890;BME280;10107;51.198;6.824;2024-01-10T17:29:40;-21204.69;;;-4.43;100.00
19890;BME280;10107;51.198;6.824;2024-01-10T17:33:43;-21201.16;;;-4.57;100.00
19890;BME280;10107;51.198;6.824;2024-01-10T17:37:46;-21198.59;;;-4.66;100.00
19890;BME280;10107;51.198;6.824;2024-01-10T17:41:47;-21196.28;;;-4.75;100.00
19890;BME280;10107;51.198;6.824;2024-01-10T17:45:49;-21195.34;;;-4.79;100.00
19890;BME280;10107;51.198;6.824;2024-01-10T17:49:53;-21196.03;;;-4.76;100.00
19890;BME280;10107;51.198;6.824;2024-01-10T17:53:55;-21197.91;;;-4.69;100.00
19890;BME280;10107;51.198;6.824;2024-01-10T17:57:57;-21199.00;;;-4.65;100.00
19890;BME280;10107;51.198;6.824;2024-01-10T18:01:59;-21198.06;;;-4.68;100.00
19890;BME280;10107;51.198;6.824;2024-01-10T18:06:02;-21194.94;;;-4.80;100.00
19890;BME280;10107;51.198;6.824;2024-01-10T18:10:03;-21192.91;;;-4.88;100.00
19890;BME280;10107;51.198;6.824;2024-01-10T18:14:05;-21194.53;;;-4.82;100.00
19890;BME280;10107;51.198;6.824;2024-01-10T18:18:07;-21193.84;;;-4.84;100.00
19890;BME280;10107;51.198;6.824;2024-01-10T18:22:10;-21191.16;;;-4.94;100.00
19890;BME280;10107;51.198;6.824;2024-01-10T18:26:11;-21188.84;;;-5.03;100.00
19890;BME280;10107;51.198;6.824;2024-01-10T18:30:13;-21186.00;;;-5.14;100.00
19890;BME280;10107;51.198;6.824;2024-01-10T18:34:15;-21184.91;;;-5.18;100.00
19890;BME280;10107;51.198;6.824;2024-01-10T18:38:18;-21182.06;;;-5.29;100.00
19890;BME280;10107;51.198;6.824;2024-01-10T18:42:20;-21181.13;;;-5.32;100.00
19890;BME280;10107;51.198;6.824;2024-01-10T18:46:21;-21180.19;;;-5.36;100.00
19890;BME280;10107;51.198;6.824;2024-01-10T18:50:24;-21178.56;;;-5.42;100.00
19890;BME280;10107;51.198;6.824;2024-01-10T18:54:27;-21176.38;;;-5.50;100.00
19890;BME280;10107;51.198;6.824;2024-01-10T18:58:29;-21175.03;;;-5.55;100.00
19890;BME280;10107;51.198;6.824;2024-01-10T19:02:31;-21173.69;;;-5.61;100.00
19890;BME280;10107;51.198;6.824;2024-01-10T19:06:33;-21173.53;;;-5.61;100.00
19890;BME280;10107;51.198;6.824;2024-01-10T19:10:36;-21172.59;;;-5.65;100.00
19890;BME280;10107;51.198;6.824;2024-01-10T19:14:38;-21171.22;;;-5.70;100.00
19890;BME280;10107;51.198;6.824;2024-01-10T19:18:40;-21170.69;;;-5.72;100.00
19890;BME280;10107;51.198;6.824;2024-01-10T19:22:42;-21168.66;;;-5.80;100.00
19890;BME280;10107;51.198;6.824;2024-01-10T19:26:46;-21167.44;;;-5.84;100.00
19890;BME280;10107;51.198;6.824;2024-01-10T19:30:48;-21167.16;;;-5.85;100.00
19890;BME280;10107;51.198;6.824;2024-01-10T19:34:50;-21168.13;;;-5.82;100.00
19890;BME280;10107;51.198;6.824;2024-01-10T19:38:52;-21165.69;;;-5.91;100.00
19890;BME280;10107;51.198;6.824;2024-01-10T19:42:55;-21166.22;;;-5.89;100.00
19890;BME280;10107;51.198;6.824;2024-01-10T19:46:56;-21166.75;;;-5.87;100.00
19890;BME280;10107;51.198;6.824;2024-01-10T19:50:58;-21166.75;;;-5.87;100.00
19890;BME280;10107;51.198;6.824;2024-01-10T19:55:00;-21164.47;;;-5.95;100.00
19890;BME280;10107;51.198;6.824;2024-01-10T19:59:04;-21162.97;;;-6.01;100.00
19890;BME280;10107;51.198;6.824;2024-01-10T20:03:06;-21163.50;;;-5.99;100.00
19890;BME280;10107;51.198;6.824;2024-01-10T20:07:07;-21163.38;;;-6.00;100.00
19890;BME280;10107;51.198;6.824;2024-01-10T20:11:09;-21162.03;;;-6.05;100.00
19890;BME280;10107;51.198;6.824;2024-01-10T20:15:13;-21161.63;;;-6.06;100.00
19890;BME280;10107;51.198;6.824;2024-01-10T20:19:15;-21161.22;;;-6.08;100.00
19890;BME280;10107;51.198;6.824;2024-01-10T20:23:16;-21160.53;;;-6.10;100.00
19890;BME280;10107;51.198;6.824;2024-01-10T20:27:19;-21160.53;;;-6.10;100.00
19890;BME280;10107;51.198;6.824;2024-01-10T20:31:23;-21159.44;;;-6.14;100.00
19890;BME280;10107;51.198;6.824;2024-01-10T20:35:25;-21157.69;;;-6.21;100.00
19890;BME280;10107;51.198;6.824;2024-01-10T20:39:26;-21157.69;;;-6.21;100.00
19890;BME280;10107;51.198;6.824;2024-01-10T20:43:28;-21157.69;;;-6.21;100.00
19890;BME280;10107;51.198;6.824;2024-01-10T20:47:31;-21157.53;;;-6.22;100.00
19890;BME280;10107;51.198;6.824;2024-01-10T20:51:34;-21156.59;;;-6.25;100.00
19890;BME280;10107;51.198;6.824;2024-01-10T20:55:36;-21155.91;;;-6.28;100.00
19890;BME280;10107;51.198;6.824;2024-01-10T20:59:37;-21155.50;;;-6.29;100.00
19890;BME280;10107;51.198;6.824;2024-01-10T21:03:41;-21155.38;;;-6.30;100.00